sensor_id;sensor_type;location;lat;lon;timestamp;pressure;altitude;pressure_sealevel;temperature;humidity
56074;BME280;41950;55.840;37.442;2024-01-07T00:01:38;99785.63;;;-20.25;73.83
56074;BME280;41950;55.840;37.442;2024-01-07T00:04:04;99874.13;;;-19.81;73.75
56074;BME280;41950;55.840;37.442;2024-01-07T00:06:29;99818.47;;;-20.17;73.54
56074;BME280;41950;55.840;37.442;2024-01-07T00:08:56;99829.22;;;-20.17;73.85
56074;BME280;41950;55.840;37.442;2024-01-07T00:11:23;99729.31;;;-20.76;73.18
56074;BME280;41950;55.840;37.442;2024-01-07T00:13:48;99871.75;;;-20.04;73.25
56074;BME280;41950;55.840;37.442;2024-01-07T00:16:14;99885.22;;;-20.09;73.43
56074;BME280;41950;55.840;37.442;2024-01-07T00:18:39;99884.34;;;-20.09;73.42
56074;BME280;41950;55.840;37.442;2024-01-07T00:21:05;99886.56;;;-20.19;73.22
56074;BME280;41950;55.840;37.442;2024-01-07T00:23:31;99886.25;;;-20.22;73.70
56074;BME280;41950;55.840;37.442;2024-01-07T00:25:56;99891.50;;;-20.19;73.44
56074;BME280;41950;55.840;37.442;2024-01-07T00:28:22;99786.44;;;-20.80;73.52
56074;BME280;41950;55.840;37.442;2024-01-07T00:30:47;99895.41;;;-20.21;73.46
56074;BME280;41950;55.840;37.442;2024-01-07T00:33:13;99883.75;;;-20.38;72.86
56074;BME280;41950;55.840;37.442;2024-01-07T00:35:39;99833.38;;;-20.72;72.95
56074;BME280;41950;55.840;37.442;2024-01-07T00:38:04;99863.22;;;-20.61;73.07
56074;BME280;41950;55.840;37.442;2024-01-07T00:40:30;99902.03;;;-20.45;73.31
56074;BME280;41950;55.840;37.442;2024-01-07T00:42:56;99880.25;;;-20.56;73.25
56074;BME280;41950;55.840;37.442;2024-01-07T00:45:21;99908.72;;;-20.44;72.99
56074;BME280;41950;55.840;37.442;2024-01-07T00:47:47;99842.78;;;-20.83;73.20
56074;BME280;41950;55.840;37.442;2024-01-07T00:50:12;99920.00;;;-20.46;73.11
56074;BME280;41950;55.840;37.442;2024-01-07T00:52:38;99887.06;;;-20.69;72.39
56074;BME280;41950;55.840;37.442;2024-01-07T00:55:07;99835.09;;;-21.09;72.43
56074;BME280;41950;55.840;37.442;2024-01-07T00:57:33;99918.28;;;-20.70;72.30
56074;BME280;41950;55.840;37.442;2024-01-07T01:00:00;99932.34;;;-20.69;72.36
56074;BME280;41950;55.840;37.442;2024-01-07T01:02:26;99910.47;;;-20.88;72.13
56074;BME280;41950;55.840;37.442;2024-01-07T01:04:51;99936.81;;;-20.73;72.42
56074;BME280;41950;55.840;37.442;2024-01-07T01:07:17;99885.09;;;-21.10;72.42
56074;BME280;41950;55.840;37.442;2024-01-07T01:09:43;99942.13;;;-20.77;72.52
56074;BME280;41950;55.840;37.442;2024-01-07T01:12:08;99910.28;;;-21.06;72.52
56074;BME280;41950;55.840;37.442;2024-01-07T01:14:34;99893.81;;;-21.21;72.28
56074;BME280;41950;55.840;37.442;2024-01-07T01:17:00;99950.00;;;-20.95;72.32
56074;BME280;41950;55.840;37.442;2024-01-07T01:19:25;99909.22;;;-21.31;72.32
56074;BME280;41950;55.840;37.442;2024-01-07T01:21:51;99952.41;;;-21.18;72.24
56074;BME280;41950;55.840;37.442;2024-01-07T01:24:16;99937.75;;;-21.33;72.02
56074;BME280;41950;55.840;37.442;2024-01-07T01:26:42;99983.69;;;-21.10;72.07
56074;BME280;41950;55.840;37.442;2024-01-07T01:29:08;99876.03;;;-21.78;72.10
56074;BME280;41950;55.840;37.442;2024-01-07T01:31:33;99919.03;;;-21.53;72.00
56074;BME280;41950;55.840;37.442;2024-01-07T01:33:59;99996.56;;;-21.13;72.03
56074;BME280;41950;55.840;37.442;2024-01-07T01:36:25;99875.38;;;-21.84;72.05
56074;BME280;41950;55.840;37.442;2024-01-07T01:38:50;99973.69;;;-21.35;71.52
56074;BME280;41950;55.840;37.442;2024-01-07T01:41:16;100017.03;;;-21.21;71.76
56074;BME280;41950;55.840;37.442;2024-01-07T01:43:42;99946.88;;;-21.62;71.67
56074;BME280;41950;55.840;37.442;2024-01-07T01:46:08;99947.75;;;-21.68;71.08
56074;BME280;41950;55.840;37.442;2024-01-07T01:48:35;99936.75;;;-21.93;71.09
56074;BME280;41950;55.840;37.442;2024-01-07T01:51:01;99930.81;;;-22.02;71.17
56074;BME280;41950;55.840;37.442;2024-01-07T01:53:28;100025.66;;;-21.54;71.42
56074;BME280;41950;55.840;37.442;2024-01-07T01:55:57;99970.50;;;-21.85;71.37
56074;BME280;41950;55.840;37.442;2024-01-07T01:58:23;100034.97;;;-21.52;70.96
56074;BME280;41950;55.840;37.442;2024-01-07T02:00:49;99973.34;;;-21.96;70.96
56074;BME280;41950;55.840;37.442;2024-01-07T02:03:18;100043.97;;;-21.59;71.08
56074;BME280;41950;55.840;37.442;2024-01-07T02:05:44;100034.13;;;-21.74;70.88
56074;BME280;41950;55.840;37.442;2024-01-07T02:08:10;100039.25;;;-21.79;70.99
56074;BME280;41950;55.840;37.442;2024-01-07T02:10:36;100065.25;;;-21.67;71.20
56074;BME280;41950;55.840;37.442;2024-01-07T02:13:05;100070.88;;;-21.68;71.00
56074;BME280;41950;55.840;37.442;2024-01-07T02:15:31;100030.28;;;-21.93;70.79
56074;BME280;41950;55.840;37.442;2024-01-07T02:17:57;100070.38;;;-21.73;70.76
56074;BME280;41950;55.840;37.442;2024-01-07T02:20:23;100026.84;;;-22.09;71.02
56074;BME280;41950;55.840;37.442;2024-01-07T02:22:49;100030.91;;;-22.10;70.83
56074;BME280;41950;55.840;37.442;2024-01-07T02:25:15;100089.91;;;-21.81;70.46
56074;BME280;41950;55.840;37.442;2024-01-07T02:27:40;100020.72;;;-22.41;70.38
56074;BME280;41950;55.840;37.442;2024-01-07T02:30:06;100092.53;;;-21.94;70.74
56074;BME280;41950;55.840;37.442;2024-01-07T02:32:32;100053.22;;;-22.23;70.66
56074;BME280;41950;55.840;37.442;2024-01-07T02:35:00;99983.09;;;-22.55;70.55
56074;BME280;41950;55.840;37.442;2024-01-07T02:37:26;100030.91;;;-22.38;70.34
56074;BME280;41950;55.840;37.442;2024-01-07T02:39:52;100084.28;;;-22.02;70.56
56074;BME280;41950;55.840;37.442;2024-01-07T02:42:17;100083.94;;;-21.98;70.84
56074;BME280;41950;55.840;37.442;2024-01-07T02:44:43;100027.03;;;-22.29;70.74
56074;BME280;41950;55.840;37.442;2024-01-07T02:47:09;100052.16;;;-22.25;70.39
56074;BME280;41950;55.840;37.442;2024-01-07T02:49:34;100097.88;;;-22.05;70.41
56074;BME280;41950;55.840;37.442;2024-01-07T02:52:00;100052.69;;;-22.34;70.25
56074;BME280;41950;55.840;37.442;2024-01-07T02:54:26;100106.84;;;-22.13;69.91
56074;BME280;41950;55.840;37.442;2024-01-07T02:56:51;100102.78;;;-22.34;69.91
56074;BME280;41950;55.840;37.442;2024-01-07T02:59:17;100097.31;;;-22.45;70.21
56074;BME280;41950;55.840;37.442;2024-01-07T03:01:42;100008.56;;;-22.97;69.94
56074;BME280;41950;55.840;37.442;2024-01-07T03:04:14;100112.56;;;-22.48;70.19
56074;BME280;41950;55.840;37.442;2024-01-07T03:06:40;100106.63;;;-22.43;70.28
56074;BME280;41950;55.840;37.442;2024-01-07T03:09:06;100095.69;;;-22.52;70.25
56074;BME280;41950;55.840;37.442;2024-01-07T03:11:32;100074.94;;;-22.75;70.28
56074;BME280;41950;55.840;37.442;2024-01-07T03:13:57;100127.16;;;-22.57;70.03
56074;BME280;41950;55.840;37.442;2024-01-07T03:16:26;100050.66;;;-23.08;70.11
56074;BME280;41950;55.840;37.442;2024-01-07T03:18:52;100149.81;;;-22.59;70.21
56074;BME280;41950;55.840;37.442;2024-01-07T03:21:22;100121.66;;;-22.82;69.74
56074;BME280;41950;55.840;37.442;2024-01-07T03:23:50;100086.44;;;-23.10;69.60
56074;BME280;41950;55.840;37.442;2024-01-07T03:26:16;100145.53;;;-22.81;69.72
56074;BME280;41950;55.840;37.442;2024-01-07T03:28:43;100145.34;;;-22.90;69.72
56074;BME280;41950;55.840;37.442;2024-01-07T03:31:11;100094.94;;;-23.35;69.92
56074;BME280;41950;55.840;37.442;2024-01-07T03:33:38;100153.84;;;-23.08;69.98
56074;BME280;41950;55.840;37.442;2024-01-07T03:36:08;100162.63;;;-23.10;70.21
56074;BME280;41950;55.840;37.442;2024-01-07T03:38:35;100088.91;;;-23.51;69.83
56074;BME280;41950;55.840;37.442;2024-01-07T03:41:01;100172.97;;;-23.12;69.90
56074;BME280;41950;55.840;37.442;2024-01-07T03:43:27;100178.72;;;-23.19;69.71
56074;BME280;41950;55.840;37.442;2024-01-07T03:45:52;100181.50;;;-23.23;70.09
56074;BME280;41950;55.840;37.442;2024-01-07T03:48:18;100176.22;;;-23.26;69.41
56074;BME280;41950;55.840;37.442;2024-01-07T03:50:44;100132.88;;;-23.60;69.56
56074;BME280;41950;55.840;37.442;2024-01-07T03:53:09;100125.47;;;-23.67;69.82
56074;BME280;41950;55.840;37.442;2024-01-07T03:55:35;100139.72;;;-23.57;70.29
56074;BME280;41950;55.840;37.442;2024-01-07T03:58:01;100162.94;;;-23.48;69.52
56074;BME280;41950;55.840;37.442;2024-01-07T04:00:26;100201.50;;;-23.27;69.56
56074;BME280;41950;55.840;37.442;2024-01-07T04:02:52;100105.81;;;-23.74;69.73
56074;BME280;41950;55.840;37.442;2024-01-07T04:05:17;100141.72;;;-23.47;69.50
56074;BME280;41950;55.840;37.442;2024-01-07T04:07:43;100204.41;;;-23.03;69.58
56074;BME280;41950;55.840;37.442;2024-01-07T04:10:09;100165.53;;;-23.27;69.15
56074;BME280;41950;55.840;37.442;2024-01-07T04:12:34;100180.13;;;-23.21;69.16
56074;BME280;41950;55.840;37.442;2024-01-07T04:15:00;100202.81;;;-23.09;69.18
56074;BME280;41950;55.840;37.442;2024-01-07T04:17:25;100205.97;;;-23.10;69.05
56074;BME280;41950;55.840;37.442;2024-01-07T04:19:52;100214.34;;;-23.15;68.71
56074;BME280;41950;55.840;37.442;2024-01-07T04:22:17;100106.50;;;-23.75;69.14
56074;BME280;41950;55.840;37.442;2024-01-07T04:24:43;100215.28;;;-23.08;69.25
56074;BME280;41950;55.840;37.442;2024-01-07T04:27:09;100189.59;;;-23.17;69.13
56074;BME280;41950;55.840;37.442;2024-01-07T04:29:35;100156.28;;;-23.42;68.98
56074;BME280;41950;55.840;37.442;2024-01-07T04:32:01;100189.88;;;-23.28;68.59
56074;BME280;41950;55.840;37.442;2024-01-07T04:34:27;100222.97;;;-23.12;68.16
56074;BME280;41950;55.840;37.442;2024-01-07T04:36:52;100236.84;;;-23.12;68.37
56074;BME280;41950;55.840;37.442;2024-01-07T04:39:18;100224.91;;;-23.09;68.46
56074;BME280;41950;55.840;37.442;2024-01-07T04:41:43;100229.13;;;-23.08;68.14
56074;BME280;41950;55.840;37.442;2024-01-07T04:44:09;100077.91;;;-24.01;68.08
56074;BME280;41950;55.840;37.442;2024-01-07T04:46:38;100221.88;;;-23.21;68.19
56074;BME280;41950;55.840;37.442;2024-01-07T04:49:05;100229.16;;;-23.28;67.88
56074;BME280;41950;55.840;37.442;2024-01-07T04:51:34;100212.91;;;-23.47;67.78
56074;BME280;41950;55.840;37.442;2024-01-07T04:54:02;100262.38;;;-23.25;68.13
56074;BME280;41950;55.840;37.442;2024-01-07T04:56:28;100268.38;;;-23.23;67.96
56074;BME280;41950;55.840;37.442;2024-01-07T04:58:53;100273.00;;;-23.31;67.90
56074;BME280;41950;55.840;37.442;2024-01-07T05:01:19;100254.25;;;-23.58;68.00
56074;BME280;41950;55.840;37.442;2024-01-07T05:03:45;100259.41;;;-23.69;68.06
56074;BME280;41950;55.840;37.442;2024-01-07T05:06:11;100293.06;;;-23.48;68.45
56074;BME280;41950;55.840;37.442;2024-01-07T05:08:37;100127.13;;;-24.47;68.45
56074;BME280;41950;55.840;37.442;2024-01-07T05:11:06;100303.41;;;-23.51;68.58
56074;BME280;41950;55.840;37.442;2024-01-07T05:13:31;100294.03;;;-23.60;68.61
56074;BME280;41950;55.840;37.442;2024-01-07T05:15:57;100202.19;;;-24.15;68.80
56074;BME280;41950;55.840;37.442;2024-01-07T05:18:24;100305.19;;;-23.69;68.20
56074;BME280;41950;55.840;37.442;2024-01-07T05:20:50;100290.03;;;-23.92;68.53
56074;BME280;41950;55.840;37.442;2024-01-07T05:23:16;100255.34;;;-24.28;68.32
56074;BME280;41950;55.840;37.442;2024-01-07T05:25:45;100320.88;;;-23.94;68.59
56074;BME280;41950;55.840;37.442;2024-01-07T05:28:11;100309.53;;;-24.06;68.80
56074;BME280;41950;55.840;37.442;2024-01-07T05:30:38;100333.69;;;-23.90;68.79
56074;BME280;41950;55.840;37.442;2024-01-07T05:33:04;100335.66;;;-23.87;68.59
56074;BME280;41950;55.840;37.442;2024-01-07T05:35:30;100298.03;;;-24.13;68.57
56074;BME280;41950;55.840;37.442;2024-01-07T05:37:56;100276.47;;;-24.35;68.56
56074;BME280;41950;55.840;37.442;2024-01-07T05:40:22;100353.75;;;-23.99;68.73
56074;BME280;41950;55.840;37.442;2024-01-07T05:42:48;100341.63;;;-24.18;68.43
56074;BME280;41950;55.840;37.442;2024-01-07T05:45:13;100362.63;;;-24.07;68.83
56074;BME280;41950;55.840;37.442;2024-01-07T05:47:39;100287.66;;;-24.50;68.61
56074;BME280;41950;55.840;37.442;2024-01-07T05:50:07;100332.06;;;-24.29;68.80
56074;BME280;41950;55.840;37.442;2024-01-07T05:52:32;100288.66;;;-24.55;68.57
56074;BME280;41950;55.840;37.442;2024-01-07T05:54:58;100373.81;;;-24.09;68.93
56074;BME280;41950;55.840;37.442;2024-01-07T05:57:24;100369.09;;;-24.07;69.03
56074;BME280;41950;55.840;37.442;2024-01-07T05:59:50;100363.50;;;-24.06;69.29
56074;BME280;41950;55.840;37.442;2024-01-07T06:02:17;100373.69;;;-24.03;69.64
56074;BME280;41950;55.840;37.442;2024-01-07T06:04:43;100319.81;;;-24.29;69.67
56074;BME280;41950;55.840;37.442;2024-01-07T06:07:08;100361.31;;;-23.98;69.60
56074;BME280;41950;55.840;37.442;2024-01-07T06:09:34;100309.59;;;-24.32;69.49
56074;BME280;41950;55.840;37.442;2024-01-07T06:12:00;100295.81;;;-24.57;69.24
56074;BME280;41950;55.840;37.442;2024-01-07T06:14:26;100265.31;;;-24.71;68.79
56074;BME280;41950;55.840;37.442;2024-01-07T06:16:52;100299.94;;;-24.63;68.80
56074;BME280;41950;55.840;37.442;2024-01-07T06:19:18;100281.78;;;-24.70;69.00
56074;BME280;41950;55.840;37.442;2024-01-07T06:21:43;100361.72;;;-24.20;69.19
56074;BME280;41950;55.840;37.442;2024-01-07T06:24:09;100277.28;;;-24.67;69.12
56074;BME280;41950;55.840;37.442;2024-01-07T06:26:35;100374.88;;;-24.07;69.02
56074;BME280;41950;55.840;37.442;2024-01-07T06:29:01;100346.44;;;-24.25;68.76
56074;BME280;41950;55.840;37.442;2024-01-07T06:31:27;100380.28;;;-24.09;68.86
56074;BME280;41950;55.840;37.442;2024-01-07T06:33:53;100356.59;;;-24.29;69.00
56074;BME280;41950;55.840;37.442;2024-01-07T06:36:21;100384.09;;;-24.12;68.92
56074;BME280;41950;55.840;37.442;2024-01-07T06:38:47;100325.88;;;-24.45;68.73
56074;BME280;41950;55.840;37.442;2024-01-07T06:41:15;100277.88;;;-24.88;68.67
56074;BME280;41950;55.840;37.442;2024-01-07T06:43:41;100398.91;;;-24.17;68.68
56074;BME280;41950;55.840;37.442;2024-01-07T06:46:07;100376.50;;;-24.33;68.43
56074;BME280;41950;55.840;37.442;2024-01-07T06:48:32;100408.63;;;-23.99;68.74
56074;BME280;41950;55.840;37.442;2024-01-07T06:50:58;100332.56;;;-24.44;68.36
56074;BME280;41950;55.840;37.442;2024-01-07T06:53:25;100414.31;;;-24.05;68.44
56074;BME280;41950;55.840;37.442;2024-01-07T06:55:52;100348.34;;;-24.42;68.40
56074;BME280;41950;55.840;37.442;2024-01-07T06:58:19;100396.94;;;-24.20;68.54
56074;BME280;41950;55.840;37.442;2024-01-07T07:00:46;100399.41;;;-24.20;68.43
56074;BME280;41950;55.840;37.442;2024-01-07T07:03:13;100377.19;;;-24.34;68.44
56074;BME280;41950;55.840;37.442;2024-01-07T07:05:41;100455.91;;;-23.87;68.44
56074;BME280;41950;55.840;37.442;2024-01-07T07:08:06;100264.75;;;-24.89;68.31
56074;BME280;41950;55.840;37.442;2024-01-07T07:10:32;100372.50;;;-24.13;68.43
56074;BME280;41950;55.840;37.442;2024-01-07T07:12:58;100367.53;;;-24.07;68.31
56074;BME280;41950;55.840;37.442;2024-01-07T07:15:25;100456.03;;;-23.80;67.64
56074;BME280;41950;55.840;37.442;2024-01-07T07:17:53;100468.09;;;-23.82;67.90
56074;BME280;41950;55.840;37.442;2024-01-07T07:20:20;100478.50;;;-23.77;68.33
56074;BME280;41950;55.840;37.442;2024-01-07T07:22:45;100352.78;;;-24.52;68.00
56074;BME280;41950;55.840;37.442;2024-01-07T07:25:11;100124.63;;;-25.82;67.48
56074;BME280;41950;55.840;37.442;2024-01-07T07:27:37;100285.72;;;-24.91;67.94
56074;BME280;41950;55.840;37.442;2024-01-07T07:30:05;100415.97;;;-24.12;67.79
56074;BME280;41950;55.840;37.442;2024-01-07T07:32:34;100284.63;;;-24.93;67.58
56074;BME280;41950;55.840;37.442;2024-01-07T07:35:02;100493.88;;;-23.65;67.42
56074;BME280;41950;55.840;37.442;2024-01-07T07:37:29;100480.75;;;-23.91;67.21
56074;BME280;41950;55.840;37.442;2024-01-07T07:39:55;100431.56;;;-24.11;67.47
56074;BME280;41950;55.840;37.442;2024-01-07T07:42:20;100423.34;;;-24.12;67.71
56074;BME280;41950;55.840;37.442;2024-01-07T07:44:47;100351.69;;;-24.54;67.46
56074;BME280;41950;55.840;37.442;2024-01-07T07:47:13;100478.56;;;-23.83;67.55
56074;BME280;41950;55.840;37.442;2024-01-07T07:49:39;100514.50;;;-23.58;67.57
56074;BME280;41950;55.840;37.442;2024-01-07T07:52:08;100499.56;;;-23.59;67.63
56074;BME280;41950;55.840;37.442;2024-01-07T07:54:34;100513.50;;;-23.53;67.40
56074;BME280;41950;55.840;37.442;2024-01-07T07:57:03;100474.09;;;-23.79;67.33
56074;BME280;41950;55.840;37.442;2024-01-07T07:59:33;100210.78;;;-25.34;67.20
56074;BME280;41950;55.840;37.442;2024-01-07T08:01:58;100496.44;;;-23.71;67.11
56074;BME280;41950;55.840;37.442;2024-01-07T08:04:27;100359.03;;;-24.54;67.05
56074;BME280;41950;55.840;37.442;2024-01-07T08:06:54;100530.41;;;-23.61;67.14
56074;BME280;41950;55.840;37.442;2024-01-07T08:09:22;100537.59;;;-23.63;66.94
56074;BME280;41950;55.840;37.442;2024-01-07T08:11:50;100515.00;;;-23.73;67.07
56074;BME280;41950;55.840;37.442;2024-01-07T08:14:16;100550.31;;;-23.40;67.04
56074;BME280;41950;55.840;37.442;2024-01-07T08:16:43;100548.72;;;-23.39;66.71
56074;BME280;41950;55.840;37.442;2024-01-07T08:19:09;100448.06;;;-23.97;66.67
56074;BME280;41950;55.840;37.442;2024-01-07T08:21:35;100556.78;;;-23.40;66.56
56074;BME280;41950;55.840;37.442;2024-01-07T08:24:01;100555.78;;;-23.35;66.53
56074;BME280;41950;55.840;37.442;2024-01-07T08:26:27;100527.50;;;-23.39;66.49
56074;BME280;41950;55.840;37.442;2024-01-07T08:28:57;100447.97;;;-23.79;66.63
56074;BME280;41950;55.840;37.442;2024-01-07T08:31:25;100553.28;;;-23.10;66.71
56074;BME280;41950;55.840;37.442;2024-01-07T08:33:52;100557.91;;;-23.06;66.64
56074;BME280;41950;55.840;37.442;2024-01-07T08:36:19;100517.88;;;-23.25;66.87
56074;BME280;41950;55.840;37.442;2024-01-07T08:38:47;100563.19;;;-22.90;66.97
56074;BME280;41950;55.840;37.442;2024-01-07T08:41:17;100533.81;;;-22.96;66.91
56074;BME280;41950;55.840;37.442;2024-01-07T08:43:44;100536.16;;;-22.90;66.94
56074;BME280;41950;55.840;37.442;2024-01-07T08:46:11;100515.97;;;-22.88;66.89
56074;BME280;41950;55.840;37.442;2024-01-07T08:48:39;100521.28;;;-22.84;66.46
56074;BME280;41950;55.840;37.442;2024-01-07T08:51:08;100303.81;;;-24.00;66.11
56074;BME280;41950;55.840;37.442;2024-01-07T08:53:33;100335.34;;;-23.83;64.97
56074;BME280;41950;55.840;37.442;2024-01-07T08:55:59;100505.25;;;-22.88;65.71
56074;BME280;41950;55.840;37.442;2024-01-07T08:58:25;100525.69;;;-22.82;65.94
56074;BME280;41950;55.840;37.442;2024-01-07T09:00:52;100481.13;;;-22.98;65.92
56074;BME280;41950;55.840;37.442;2024-01-07T09:03:17;100539.56;;;-22.63;66.05
56074;BME280;41950;55.840;37.442;2024-01-07T09:05:43;100574.22;;;-22.54;65.99
56074;BME280;41950;55.840;37.442;2024-01-07T09:08:09;100559.66;;;-22.72;66.25
56074;BME280;41950;55.840;37.442;2024-01-07T09:10:36;100538.47;;;-22.84;66.43
56074;BME280;41950;55.840;37.442;2024-01-07T09:13:03;100471.50;;;-23.09;66.77
56074;BME280;41950;55.840;37.442;2024-01-07T09:15:29;100563.16;;;-22.38;66.64
56074;BME280;41950;55.840;37.442;2024-01-07T09:17:55;100529.72;;;-22.43;66.30
56074;BME280;41950;55.840;37.442;2024-01-07T09:20:20;100585.53;;;-22.09;66.00
56074;BME280;41950;55.840;37.442;2024-01-07T09:22:46;100551.84;;;-22.23;65.83
56074;BME280;41950;55.840;37.442;2024-01-07T09:25:13;100480.41;;;-22.57;66.00
56074;BME280;41950;55.840;37.442;2024-01-07T09:27:40;100524.91;;;-22.29;65.73
56074;BME280;41950;55.840;37.442;2024-01-07T09:30:07;100526.25;;;-22.18;65.69
56074;BME280;41950;55.840;37.442;2024-01-07T09:32:37;100578.38;;;-21.74;65.96
56074;BME280;41950;55.840;37.442;2024-01-07T09:35:04;100575.78;;;-21.68;65.85
56074;BME280;41950;55.840;37.442;2024-01-07T09:37:33;100463.75;;;-22.26;65.82
56074;BME280;41950;55.840;37.442;2024-01-07T09:39:59;100411.34;;;-22.59;65.55
56074;BME280;41950;55.840;37.442;2024-01-07T09:42:29;100182.16;;;-24.05;65.26
56074;BME280;41950;55.840;37.442;2024-01-07T09:44:55;100355.88;;;-22.83;65.48
56074;BME280;41950;55.840;37.442;2024-01-07T09:47:23;100421.84;;;-22.40;65.33
56074;BME280;41950;55.840;37.442;2024-01-07T09:49:50;100582.88;;;-21.30;65.53
56074;BME280;41950;55.840;37.442;2024-01-07T09:52:20;100553.72;;;-21.47;65.16
56074;BME280;41950;55.840;37.442;2024-01-07T09:54:54;100581.84;;;-21.25;65.23
56074;BME280;41950;55.840;37.442;2024-01-07T09:57:23;100536.81;;;-21.51;64.99
56074;BME280;41950;55.840;37.442;2024-01-07T09:59:50;100598.38;;;-21.17;65.14
56074;BME280;41950;55.840;37.442;2024-01-07T10:02:16;100547.22;;;-21.46;65.27
56074;BME280;41950;55.840;37.442;2024-01-07T10:04:43;100567.06;;;-21.25;65.37
56074;BME280;41950;55.840;37.442;2024-01-07T10:07:10;100552.25;;;-21.25;65.16
56074;BME280;41950;55.840;37.442;2024-01-07T10:09:43;100588.94;;;-21.07;65.35
56074;BME280;41950;55.840;37.442;2024-01-07T10:12:10;100574.00;;;-21.01;65.26
56074;BME280;41950;55.840;37.442;2024-01-07T10:14:40;100589.59;;;-20.81;65.08
56074;BME280;41950;55.840;37.442;2024-01-07T10:17:16;100496.97;;;-21.34;65.01
56074;BME280;41950;55.840;37.442;2024-01-07T10:19:44;100597.19;;;-20.65;65.21
56074;BME280;41950;55.840;37.442;2024-01-07T10:22:13;100521.88;;;-20.97;65.26
56074;BME280;41950;55.840;37.442;2024-01-07T10:24:41;100513.97;;;-20.87;64.76
56074;BME280;41950;55.840;37.442;2024-01-07T10:27:09;100602.53;;;-20.41;64.14
56074;BME280;41950;55.840;37.442;2024-01-07T10:29:36;100551.88;;;-20.80;64.29
56074;BME280;41950;55.840;37.442;2024-01-07T10:32:05;100575.88;;;-20.64;64.58
56074;BME280;41950;55.840;37.442;2024-01-07T10:34:35;100374.13;;;-21.79;64.49
56074;BME280;41950;55.840;37.442;2024-01-07T10:37:03;100462.81;;;-21.17;64.73
56074;BME280;41950;55.840;37.442;2024-01-07T10:39:50;100592.63;;;-20.34;64.75
56074;BME280;41950;55.840;37.442;2024-01-07T10:42:18;100546.09;;;-20.66;64.74
56074;BME280;41950;55.840;37.442;2024-01-07T10:44:44;100507.31;;;-20.74;64.78
56074;BME280;41950;55.840;37.442;2024-01-07T10:47:10;100556.00;;;-20.45;64.74
56074;BME280;41950;55.840;37.442;2024-01-07T10:49:44;100382.50;;;-21.50;64.62
56074;BME280;41950;55.840;37.442;2024-01-07T10:52:12;100569.53;;;-20.34;64.91
56074;BME280;41950;55.840;37.442;2024-01-07T10:54:44;100603.78;;;-20.09;65.21
56074;BME280;41950;55.840;37.442;2024-01-07T10:57:19;100539.44;;;-20.46;64.72
56074;BME280;41950;55.840;37.442;2024-01-07T10:59:47;100437.09;;;-21.12;64.67
56074;BME280;41950;55.840;37.442;2024-01-07T11:02:15;100571.81;;;-20.36;64.66
56074;BME280;41950;55.840;37.442;2024-01-07T11:05:03;100516.81;;;-20.63;64.56
56074;BME280;41950;55.840;37.442;2024-01-07T11:07:48;100407.72;;;-21.32;64.60
56074;BME280;41950;55.840;37.442;2024-01-07T11:10:26;100611.75;;;-19.97;64.84
56074;BME280;41950;55.840;37.442;2024-01-07T11:12:57;100585.78;;;-20.08;64.49
56074;BME280;41950;55.840;37.442;2024-01-07T11:18:21;100610.84;;;-19.76;64.71
56074;BME280;41950;55.840;37.442;2024-01-07T11:20:48;100611.41;;;-19.72;64.66
56074;BME280;41950;55.840;37.442;2024-01-07T11:26:02;100516.81;;;-20.06;64.34
56074;BME280;41950;55.840;37.442;2024-01-07T11:28:48;100610.13;;;-19.61;64.10
56074;BME280;41950;55.840;37.442;2024-01-07T11:31:20;100595.50;;;-19.81;64.56
56074;BME280;41950;55.840;37.442;2024-01-07T11:33:49;100620.38;;;-19.72;64.64
56074;BME280;41950;55.840;37.442;2024-01-07T11:36:17;100618.09;;;-19.63;65.11
56074;BME280;41950;55.840;37.442;2024-01-07T11:38:49;100617.38;;;-19.55;65.02
56074;BME280;41950;55.840;37.442;2024-01-07T11:41:16;100618.06;;;-19.56;64.79
56074;BME280;41950;55.840;37.442;2024-01-07T11:43:53;100620.91;;;-19.60;64.73
56074;BME280;41950;55.840;37.442;2024-01-07T11:46:23;100615.63;;;-19.63;64.96
56074;BME280;41950;55.840;37.442;2024-01-07T11:48:56;100567.44;;;-19.88;64.88
56074;BME280;41950;55.840;37.442;2024-01-07T11:51:29;100621.09;;;-19.66;65.15
56074;BME280;41950;55.840;37.442;2024-01-07T11:53:59;100627.63;;;-19.59;65.23
56074;BME280;41950;55.840;37.442;2024-01-07T11:56:25;100529.53;;;-20.17;65.16
56074;BME280;41950;55.840;37.442;2024-01-07T11:58:52;100643.50;;;-19.64;65.02
56074;BME280;41950;55.840;37.442;2024-01-07T12:01:18;100569.22;;;-20.09;65.22
56074;BME280;41950;55.840;37.442;2024-01-07T12:03:44;100631.66;;;-19.74;65.48
56074;BME280;41950;55.840;37.442;2024-01-07T12:06:12;100650.56;;;-19.60;65.27
56074;BME280;41950;55.840;37.442;2024-01-07T12:08:41;100614.38;;;-19.95;65.19
56074;BME280;41950;55.840;37.442;2024-01-07T12:11:09;100619.88;;;-19.98;65.42
56074;BME280;41950;55.840;37.442;2024-01-07T12:13:38;100608.00;;;-20.08;65.66
56074;BME280;41950;55.840;37.442;2024-01-07T12:16:05;100633.09;;;-19.90;65.81
56074;BME280;41950;55.840;37.442;2024-01-07T12:18:33;100514.53;;;-20.61;65.79
56074;BME280;41950;55.840;37.442;2024-01-07T12:21:02;100483.13;;;-20.98;65.56
56074;BME280;41950;55.840;37.442;2024-01-07T12:23:34;100653.38;;;-19.93;66.21
56074;BME280;41950;55.840;37.442;2024-01-07T12:26:07;100645.59;;;-20.10;66.18
56074;BME280;41950;55.840;37.442;2024-01-07T12:28:35;100569.88;;;-20.59;66.21
56074;BME280;41950;55.840;37.442;2024-01-07T12:31:04;100656.16;;;-20.11;66.56
56074;BME280;41950;55.840;37.442;2024-01-07T12:33:32;100664.28;;;-20.12;66.59
56074;BME280;41950;55.840;37.442;2024-01-07T12:35:59;100671.50;;;-20.14;66.32